NO-0003 weather

Kilen Seaplane Base
Akershus, Norway

Public forecast

Using degrees Celsius for public forecast. Weather courtesy of forecast.io.

METAR (pilot weather report)

Closest report is Oslo, Fornebu Airport, 0.6 nm (1.1 km) ENE. Retrieved 2019/05/21 11:20 UTC (39 minutes ago):

ENFB 211120Z AUTO 01019KT 0250NDV -RA NCD 09/09 Q1013 W///S4

TAF (pilot weather forecast)

Closest forecast is Oslo Gardermoen Airport, 23.5 nm (43.6 km) NE. Retrieved 2019/05/21 06:57 UTC (5 hours ago):

TAF ENGM 210500Z 2106/2206 02008KT 9999 SCT015 BKN030 TEMPO 2114/2122 4000 TSRA BKN012 SCT025CB TEMPO 2122/2206 2000 BR BKN003